Airfield :
LOGIN :

Register | Disclaimer

   EN    FR    IT 

 










Legend :    VFR   Marginal VFR   IFR   Intensive IFR   Very Intensive IFR
Visi :
Ceiling :
>= 8 km
>= 3000ft
5 to 8 km
1000 to 3000 ft
1500m to 5 km
500 to 1000 ft
800 to 1500m
200 to 500 ft
< 800m
< 200 ft
Symbols :   Thunderstorms  Fog  Heavy snow  Heavy precipitations  Wind > 20 kt
SIGMETs :     Misc.  Thunderstorms  Icing  Turbulence  Mountain Waves  Volcanic Ashes






- Airport Elevation : 529 ft
- IATA code : CHR


LFLX - Chateauroux

CURRENT METAR :
  • 210200Z AUTO 21022KT 9999 -RA BKN023 BKN036 BKN044 10/08 Q0998 TEMPO 20025G42KT 4000 RA BKN012 SCT020TCU

EXPIRED METARs :
  • 210130Z AUTO 21025KT 9999 RA OVC024/// ///TCU 10/07 Q0997 TEMPO 20025G42KT 4000 RA BKN012 SCT020TCU
  • 210100Z AUTO 20023KT 9999 SCT029 BKN036 OVC042 11/05 Q0997 TEMPO 20025G42KT 4000 RA BKN012 SCT020TCU
  • 210030Z AUTO 20022KT 9999 FEW036 BKN044 OVC052 11/05 Q0997 TEMPO 20025G42KT 4000 RA BKN012 SCT020TCU
  • 210000Z AUTO 20023KT 9999 BKN034 OVC041 12/05 Q0997 TEMPO 20025G42KT 4000 RA BKN012 SCT020TCU
  • 202330Z AUTO 20024KT 9999 BKN038 OVC046 12/06 Q0997 TEMPO 20025G42KT 4000 RA BKN012 SCT020TCU
  • 202300Z AUTO 20024KT 9999 BKN041 BKN047 OVC054 12/05 Q0997 TEMPO 20020G40KT

TAF TAF LFLX
Valid from the 21 at 00:00 until the 22 at 06:00 UTC


202300Z 2100/2206 20020G30KT 9999 BKN030
TEMPO 2100/2105 20025G42KT 4000 RA BKN012 SCT020TCU
BECMG 2105/2107 22012KT
BECMG 2112/2114 20020G30KT
TEMPO 2114/2201 19025G45KT 4000 RA BKN012 SCT030CB
BECMG 2204/2206 18010KT



MET'MAP, your aeronautical weather chart ! - Copyright ORBIFLY December 2007 - Disclaimer

ORBIFLY MET'MAP TEAM :

Programming & Development : Alexandra Zaïnal
Concept & original design : Baudouin d'Aumeries
Assistance for programming : Marc-Olivier Méhu
Technical & hardware support : Manuel Goepfert

Contact : metmap@orbifly.com




SOURCES & CREDITS :

   NOAA